avis per tempestes more information blitzortung!


avis per Pluja more information rain snow radar


Visita la nostra xarxa de llocs de meteo:

Template documentation
and downloads

And another site



Thunderstorms From: 20-07-2018 17:00 Until: 21-07-2018 01:59 warning for: Thunderstorms Level: Yellow info button
Rain From: 20-07-2018 17:00 Until: 21-07-2018 01:59 warning for: Rain Level: Yellow info button

Pagina Historial Weather Underground text

Diari Resum Agost 30, 2017 Unitats:  Tant    Imperial   Mètric
« Previous Dia
SegĂźent Dia »
Diari Setmana Mensual Anual Personalitzada
  Maxima: Minima: Media:
Temperatura: TemperatureC °F /  -17.8 °C 18.7 °F /  -7.4 °C 23.5 °F /  -4.7 °C
Punt de rosada: DewpointC °F /  -17.8 °C 13.2 °F /  -10.4 °C 16.2 °F /  -8.8 °C
Humitat: Humidity % 48 % 64 %
Wind Speed: WindSpeedKMH mph /  0 km/h - 6 mph /  9.7 km/h
RĂ fegues de vent: WindSpeedGustKMH mph /  0 km/h - -
Vent:- - SW
Pression baro: PressurehPa in /  0 hPa 1011.7 in /  34256.2 hPa -
Precipitacions: 0.0 in /  0 mm    
Historical Graphs
 
 
Dades de taula per Agost 30, 2017
Temps Temperatura Punt de rosada Pression baro Vent Wind Speed RĂ fegues de vent Humitat Rainfall Rate (Hourly)
TemperatureC °F /  -17.8 °C DewpointC °F /  -17.8 °C PressurehPa in /  0 hPa Calm     Humidity % HourlyPrecipMM in /  0 mm
00:01 23.3 °F /  -4.8 °C 13.2 °F /  -10.4 °C 1013.8 in /  34327.3 hPa SW 5.6 mph /  9 km/h   53 % 0.0 in /  0 mm
00:05 20.8 °F /  -6.2 °C 14.0 °F /  -10 °C 1015.8 in /  34395 hPa WSW 8.0 mph /  12.9 km/h 12.9 mph /  20.8 km/h 65 % 0.0 in /  0 mm
00:15 20.7 °F /  -6.3 °C 14.3 °F /  -9.8 °C 1014.8 in /  34361.1 hPa WSW 3.2 mph /  5.1 km/h 6.4 mph /  10.3 km/h 67 % 0.0 in /  0 mm
00:30 20.6 °F /  -6.3 °C 14.3 °F /  -9.8 °C 1014.8 in /  34361.1 hPa WSW 3.2 mph /  5.1 km/h 8.0 mph /  12.9 km/h 67 % 0.0 in /  0 mm
00:40 20.7 °F /  -6.3 °C 14.6 °F /  -9.7 °C 1014.8 in /  34361.1 hPa WSW 4.8 mph /  7.7 km/h 9.7 mph /  15.6 km/h 68 % 0.0 in /  0 mm
00:50 20.8 °F /  -6.2 °C 14.7 °F /  -9.6 °C 1014.8 in /  34361.1 hPa WSW 1.6 mph /  2.6 km/h 9.7 mph /  15.6 km/h 68 % 0.0 in /  0 mm
01:00 20.7 °F /  -6.3 °C 14.6 °F /  -9.7 °C 1014.8 in /  34361.1 hPa West 3.2 mph /  5.1 km/h 4.8 mph /  7.7 km/h 68 % 0.0 in /  0 mm
01:10 20.8 °F /  -6.2 °C 14.7 °F /  -9.6 °C 1014.8 in /  34361.1 hPa WSW 3.2 mph /  5.1 km/h 4.8 mph /  7.7 km/h 68 % 0.0 in /  0 mm
01:20 20.6 °F /  -6.3 °C 14.7 °F /  -9.6 °C 1014.8 in /  34361.1 hPa Calm   3.2 mph /  5.1 km/h 69 % 0.0 in /  0 mm
01:30 20.4 °F /  -6.4 °C 14.7 °F /  -9.6 °C 1014.8 in /  34361.1 hPa WSW 3.2 mph /  5.1 km/h 4.8 mph /  7.7 km/h 70 % 0.0 in /  0 mm
01:40 20.4 °F /  -6.4 °C 14.7 °F /  -9.6 °C 1014.8 in /  34361.1 hPa WSW 3.2 mph /  5.1 km/h 6.4 mph /  10.3 km/h 70 % 0.0 in /  0 mm
01:50 20.5 °F /  -6.4 °C 14.8 °F /  -9.6 °C 1014.8 in /  34361.1 hPa SW 4.8 mph /  7.7 km/h 4.8 mph /  7.7 km/h 70 % 0.0 in /  0 mm
02:00 20.5 °F /  -6.4 °C 15.1 °F /  -9.4 °C 1014.8 in /  34361.1 hPa WSW 3.2 mph /  5.1 km/h 3.2 mph /  5.1 km/h 71 % 0.0 in /  0 mm
02:10 20.3 °F /  -6.5 °C 15.1 °F /  -9.4 °C 1014.8 in /  34361.1 hPa WSW 3.2 mph /  5.1 km/h 4.8 mph /  7.7 km/h 72 % 0.0 in /  0 mm
02:20 19.8 °F /  -6.8 °C 15.2 °F /  -9.3 °C 1014.8 in /  34361.1 hPa WSW 3.2 mph /  5.1 km/h 4.8 mph /  7.7 km/h 75 % 0.0 in /  0 mm
02:30 19.5 °F /  -6.9 °C 15.2 °F /  -9.3 °C 1015.8 in /  34395 hPa WSW 3.2 mph /  5.1 km/h 8.0 mph /  12.9 km/h 76 % 0.0 in /  0 mm
02:40 19.3 °F /  -7.1 °C 15.2 °F /  -9.3 °C 1015.8 in /  34395 hPa WSW 3.2 mph /  5.1 km/h 4.8 mph /  7.7 km/h 77 % 0.0 in /  0 mm
02:50 19.2 °F /  -7.1 °C 15.3 °F /  -9.3 °C 1015.8 in /  34395 hPa Calm   4.8 mph /  7.7 km/h 78 % 0.0 in /  0 mm
03:00 19.1 °F /  -7.2 °C 15.6 °F /  -9.1 °C 1014.8 in /  34361.1 hPa Calm     80 % 0.0 in /  0 mm
03:10 19.1 °F /  -7.2 °C 15.6 °F /  -9.1 °C 1014.8 in /  34361.1 hPa Calm   3.2 mph /  5.1 km/h 80 % 0.0 in /  0 mm
03:20 19.0 °F /  -7.2 °C 15.4 °F /  -9.2 °C 1014.8 in /  34361.1 hPa SW 3.2 mph /  5.1 km/h 4.8 mph /  7.7 km/h 80 % 0.0 in /  0 mm
03:30 19.0 °F /  -7.2 °C 15.7 °F /  -9.1 °C 1015.8 in /  34395 hPa Calm   4.8 mph /  7.7 km/h 81 % 0.0 in /  0 mm
03:40 18.9 °F /  -7.3 °C 15.8 °F /  -9 °C 1015.8 in /  34395 hPa SW 3.2 mph /  5.1 km/h 3.2 mph /  5.1 km/h 82 % 0.0 in /  0 mm
03:50 18.9 °F /  -7.3 °C 15.8 °F /  -9 °C 1014.8 in /  34361.1 hPa WSW 3.2 mph /  5.1 km/h 4.8 mph /  7.7 km/h 82 % 0.0 in /  0 mm
04:00 18.8 °F /  -7.3 °C 15.8 °F /  -9 °C 1014.8 in /  34361.1 hPa WSW 1.6 mph /  2.6 km/h 4.8 mph /  7.7 km/h 83 % 0.0 in /  0 mm
04:10 18.7 °F /  -7.4 °C 15.9 °F /  -8.9 °C 1014.8 in /  34361.1 hPa SW 1.6 mph /  2.6 km/h 3.2 mph /  5.1 km/h 84 % 0.0 in /  0 mm
04:20 18.7 °F /  -7.4 °C 15.9 °F /  -8.9 °C 1014.8 in /  34361.1 hPa Calm   3.2 mph /  5.1 km/h 84 % 0.0 in /  0 mm
04:30 18.8 °F /  -7.3 °C 16.1 °F /  -8.8 °C 1014.8 in /  34361.1 hPa Calm   3.2 mph /  5.1 km/h 84 % 0.0 in /  0 mm
04:40 18.9 °F /  -7.3 °C 16.1 °F /  -8.8 °C 1014.8 in /  34361.1 hPa Calm   3.2 mph /  5.1 km/h 84 % 0.0 in /  0 mm
04:50 19.0 °F /  -7.2 °C 16.1 °F /  -8.8 °C 1014.8 in /  34361.1 hPa SE 1.6 mph /  2.6 km/h 3.2 mph /  5.1 km/h 83 % 0.0 in /  0 mm
05:00 19.3 °F /  -7.1 °C 16.5 °F /  -8.6 °C 1013.8 in /  34327.3 hPa Calm     84 % 0.0 in /  0 mm
05:10 19.6 °F /  -6.9 °C 16.6 °F /  -8.6 °C 1013.8 in /  34327.3 hPa South 1.6 mph /  2.6 km/h 4.8 mph /  7.7 km/h 83 % 0.0 in /  0 mm
05:20 20.1 °F /  -6.6 °C 17.1 °F /  -8.3 °C 1013.8 in /  34327.3 hPa SE 1.6 mph /  2.6 km/h 4.8 mph /  7.7 km/h 83 % 0.0 in /  0 mm
05:30 20.2 °F /  -6.6 °C 16.8 °F /  -8.4 °C 1013.8 in /  34327.3 hPa East 1.6 mph /  2.6 km/h 4.8 mph /  7.7 km/h 81 % 0.0 in /  0 mm
05:40 20.1 °F /  -6.6 °C 16.6 °F /  -8.6 °C 1013.8 in /  34327.3 hPa NE 1.6 mph /  2.6 km/h 6.4 mph /  10.3 km/h 80 % 0.0 in /  0 mm
05:50 20.1 °F /  -6.6 °C 16.7 °F /  -8.5 °C 1013.8 in /  34327.3 hPa Calm   3.2 mph /  5.1 km/h 81 % 0.0 in /  0 mm
10:56 22.8 °F /  -5.1 °C 18.8 °F /  -7.3 °C 1013.8 in /  34327.3 hPa Calm   2.6 mph /  4.2 km/h 78 % 0.0 in /  0 mm
11:01 23.3 °F /  -4.8 °C 18.6 °F /  -7.4 °C 1013.8 in /  34327.3 hPa SW 3.7 mph /  6 km/h 3.7 mph /  6 km/h 75 % 0.0 in /  0 mm
11:06 23.5 °F /  -4.7 °C 18.6 °F /  -7.4 °C 1013.8 in /  34327.3 hPa SSW 3.7 mph /  6 km/h 3.7 mph /  6 km/h 74 % 0.0 in /  0 mm
11:11 24.0 °F /  -4.4 °C 18.7 °F /  -7.4 °C 1013.8 in /  34327.3 hPa SSW 6.4 mph /  10.3 km/h 6.4 mph /  10.3 km/h 72 % 0.0 in /  0 mm
11:16 24.1 °F /  -4.4 °C 18.1 °F /  -7.7 °C 1013.8 in /  34327.3 hPa South 3.7 mph /  6 km/h 3.7 mph /  6 km/h 69 % 0.0 in /  0 mm
11:21 24.2 °F /  -4.3 °C 18.2 °F /  -7.7 °C 1013.8 in /  34327.3 hPa WSW 3.7 mph /  6 km/h 3.7 mph /  6 km/h 69 % 0.0 in /  0 mm
11:26 24.5 °F /  -4.2 °C 18.4 °F /  -7.6 °C 1013.8 in /  34327.3 hPa SE 2.3 mph /  3.7 km/h 2.3 mph /  3.7 km/h 69 % 0.0 in /  0 mm
11:31 24.0 °F /  -4.4 °C 17.7 °F /  -7.9 °C 1013.8 in /  34327.3 hPa SSE 7.4 mph /  11.9 km/h 7.4 mph /  11.9 km/h 68 % 0.0 in /  0 mm
11:36 23.8 °F /  -4.6 °C 17.8 °F /  -7.9 °C 1013.8 in /  34327.3 hPa SE 4.2 mph /  6.8 km/h 4.7 mph /  7.6 km/h 69 % 0.0 in /  0 mm
11:41 24.2 °F /  -4.3 °C 18.2 °F /  -7.7 °C 1014.8 in /  34361.1 hPa ESE 2.3 mph /  3.7 km/h 2.3 mph /  3.7 km/h 69 % 0.0 in /  0 mm
11:46 24.6 °F /  -4.1 °C 18.3 °F /  -7.6 °C 1014.8 in /  34361.1 hPa SW 3.7 mph /  6 km/h 3.7 mph /  6 km/h 68 % 0.0 in /  0 mm
11:51 25.2 °F /  -3.8 °C 18.4 °F /  -7.6 °C 1014.8 in /  34361.1 hPa WSW 7.4 mph /  11.9 km/h 7.4 mph /  11.9 km/h 66 % 0.0 in /  0 mm
11:56 25.9 °F /  -3.4 °C 18.3 °F /  -7.6 °C 1013.8 in /  34327.3 hPa SSW 2.3 mph /  3.7 km/h 2.3 mph /  3.7 km/h 63 % 0.0 in /  0 mm
12:01 25.9 °F /  -3.4 °C 18.3 °F /  -7.6 °C 1013.8 in /  34327.3 hPa WSW 9.3 mph /  15 km/h 9.3 mph /  15 km/h 63 % 0.0 in /  0 mm
12:06 26.4 °F /  -3.1 °C 18.6 °F /  -7.4 °C 1013.8 in /  34327.3 hPa South 4.2 mph /  6.8 km/h 4.2 mph /  6.8 km/h 62 % 0.0 in /  0 mm
12:11 27.0 °F /  -2.8 °C 18.6 °F /  -7.4 °C 1012.8 in /  34293.4 hPa SSW 6.1 mph /  9.8 km/h 6.1 mph /  9.8 km/h 60 % 0.0 in /  0 mm
12:16 27.3 °F /  -2.6 °C 18.3 °F /  -7.6 °C 1012.8 in /  34293.4 hPa SW 3.7 mph /  6 km/h 3.7 mph /  6 km/h 58 % 0.0 in /  0 mm
12:21 27.4 °F /  -2.6 °C 18.1 °F /  -7.7 °C 1012.8 in /  34293.4 hPa WSW 7.4 mph /  11.9 km/h 7.4 mph /  11.9 km/h 57 % 0.0 in /  0 mm
12:26 27.2 °F /  -2.7 °C 17.7 °F /  -7.9 °C 1013.8 in /  34327.3 hPa SW 7.4 mph /  11.9 km/h 7.4 mph /  11.9 km/h 56 % 0.0 in /  0 mm
12:31 27.5 °F /  -2.5 °C 17.7 °F /  -7.9 °C 1013.8 in /  34327.3 hPa WSW 9.3 mph /  15 km/h 9.3 mph /  15 km/h 55 % 0.0 in /  0 mm
12:36 28.2 °F /  -2.1 °C 18.0 °F /  -7.8 °C 1013.8 in /  34327.3 hPa SSE 7.4 mph /  11.9 km/h 7.4 mph /  11.9 km/h 54 % 0.0 in /  0 mm
12:41 28.1 °F /  -2.2 °C 17.6 °F /  -8 °C 1013.8 in /  34327.3 hPa West 9.3 mph /  15 km/h 9.3 mph /  15 km/h 53 % 0.0 in /  0 mm
12:46 28.2 °F /  -2.1 °C 17.7 °F /  -7.9 °C 1013.8 in /  34327.3 hPa SW 10.0 mph /  16.1 km/h 10.0 mph /  16.1 km/h 53 % 0.0 in /  0 mm
12:51 27.8 °F /  -2.3 °C 17.1 °F /  -8.3 °C 1013.8 in /  34327.3 hPa SW 9.3 mph /  15 km/h 9.3 mph /  15 km/h 52 % 0.0 in /  0 mm
12:56 27.8 °F /  -2.3 °C 17.1 °F /  -8.3 °C 1013.8 in /  34327.3 hPa SW 5.6 mph /  9 km/h 5.6 mph /  9 km/h 52 % 0.0 in /  0 mm
13:01 27.7 °F /  -2.4 °C 16.9 °F /  -8.4 °C 1013.8 in /  34327.3 hPa SW 11.1 mph /  17.9 km/h 11.1 mph /  17.9 km/h 52 % 0.0 in /  0 mm
13:06 27.5 °F /  -2.5 °C 16.8 °F /  -8.4 °C 1013.8 in /  34327.3 hPa SW 11.9 mph /  19.2 km/h 11.9 mph /  19.2 km/h 52 % 0.0 in /  0 mm
13:11 27.3 °F /  -2.6 °C 16.6 °F /  -8.6 °C 1013.8 in /  34327.3 hPa South 5.8 mph /  9.3 km/h 5.8 mph /  9.3 km/h 52 % 0.0 in /  0 mm
13:16 27.4 °F /  -2.6 °C 16.7 °F /  -8.5 °C 1013.8 in /  34327.3 hPa SW 9.3 mph /  15 km/h 9.3 mph /  15 km/h 52 % 0.0 in /  0 mm
13:21 27.4 °F /  -2.6 °C 16.4 °F /  -8.7 °C 1013.8 in /  34327.3 hPa SW 13.0 mph /  20.9 km/h 13.0 mph /  20.9 km/h 51 % 0.0 in /  0 mm
13:26 27.6 °F /  -2.4 °C 16.8 °F /  -8.4 °C 1013.8 in /  34327.3 hPa SW 7.4 mph /  11.9 km/h 7.4 mph /  11.9 km/h 52 % 0.0 in /  0 mm
13:31 28.0 °F /  -2.2 °C 16.9 °F /  -8.4 °C 1013.8 in /  34327.3 hPa WNW 7.4 mph /  11.9 km/h 7.4 mph /  11.9 km/h 51 % 0.0 in /  0 mm
13:41 28.0 °F /  -2.2 °C 16.3 °F /  -8.7 °C 1013.8 in /  34327.3 hPa WSW 9.3 mph /  15 km/h 9.3 mph /  15 km/h 49 % 0.0 in /  0 mm
13:46 28.1 °F /  -2.2 °C 16.7 °F /  -8.5 °C 1013.8 in /  34327.3 hPa SSW 13.0 mph /  20.9 km/h 13.0 mph /  20.9 km/h 50 % 0.0 in /  0 mm
13:51 28.2 °F /  -2.1 °C 16.8 °F /  -8.4 °C 1013.8 in /  34327.3 hPa SW 16.7 mph /  26.9 km/h 16.7 mph /  26.9 km/h 50 % 0.0 in /  0 mm
13:56 27.8 °F /  -2.3 °C 16.4 °F /  -8.7 °C 1013.8 in /  34327.3 hPa South 7.4 mph /  11.9 km/h 7.4 mph /  11.9 km/h 50 % 0.0 in /  0 mm
14:01 27.8 °F /  -2.3 °C 16.4 °F /  -8.7 °C 1013.8 in /  34327.3 hPa SE 11.1 mph /  17.9 km/h 11.1 mph /  17.9 km/h 50 % 0.0 in /  0 mm
14:06 27.8 °F /  -2.3 °C 16.1 °F /  -8.8 °C 1013.8 in /  34327.3 hPa SW 9.7 mph /  15.6 km/h 9.7 mph /  15.6 km/h 49 % 0.0 in /  0 mm
14:11 27.8 °F /  -2.3 °C 16.1 °F /  -8.8 °C 1013.8 in /  34327.3 hPa SSW 9.3 mph /  15 km/h 9.3 mph /  15 km/h 49 % 0.0 in /  0 mm
14:16 27.4 °F /  -2.6 °C 15.7 °F /  -9.1 °C 1013.8 in /  34327.3 hPa WSW 18.0 mph /  29 km/h 18.0 mph /  29 km/h 49 % 0.0 in /  0 mm
14:21 27.1 °F /  -2.7 °C 15.2 °F /  -9.3 °C 1013.8 in /  34327.3 hPa WSW 13.0 mph /  20.9 km/h 13.0 mph /  20.9 km/h 48 % 0.0 in /  0 mm
14:26 27.1 °F /  -2.7 °C 15.2 °F /  -9.3 °C 1013.8 in /  34327.3 hPa SSE 13.0 mph /  20.9 km/h 13.0 mph /  20.9 km/h 48 % 0.0 in /  0 mm
14:27 27.1 °F /  -2.7 °C 15.2 °F /  -9.3 °C 1013.8 in /  34327.3 hPa SW 5.8 mph /  9.3 km/h 6.1 mph /  9.8 km/h 48 % 0.0 in /  0 mm
14:32 27.0 °F /  -2.8 °C 15.4 °F /  -9.2 °C 1013.8 in /  34327.3 hPa SSW 11.1 mph /  17.9 km/h 11.1 mph /  17.9 km/h 49 % 0.0 in /  0 mm
14:37 26.9 °F /  -2.8 °C 15.6 °F /  -9.1 °C 1013.8 in /  34327.3 hPa SSW 9.3 mph /  15 km/h 9.3 mph /  15 km/h 50 % 0.0 in /  0 mm
14:42 26.7 °F /  -2.9 °C 15.1 °F /  -9.4 °C 1013.8 in /  34327.3 hPa SW 14.8 mph /  23.8 km/h 14.8 mph /  23.8 km/h 49 % 0.0 in /  0 mm
14:47 26.6 °F /  -3 °C 15.0 °F /  -9.4 °C 1013.8 in /  34327.3 hPa SW 16.7 mph /  26.9 km/h 16.7 mph /  26.9 km/h 49 % 0.0 in /  0 mm
14:52 26.4 °F /  -3.1 °C 15.1 °F /  -9.4 °C 1013.8 in /  34327.3 hPa SSW 13.0 mph /  20.9 km/h 13.0 mph /  20.9 km/h 50 % 0.0 in /  0 mm
14:57 26.5 °F /  -3.1 °C 15.2 °F /  -9.3 °C 1013.8 in /  34327.3 hPa WSW 11.1 mph /  17.9 km/h 11.1 mph /  17.9 km/h 50 % 0.0 in /  0 mm
15:02 26.3 °F /  -3.2 °C 15.1 °F /  -9.4 °C 1013.8 in /  34327.3 hPa SW 13.0 mph /  20.9 km/h 13.0 mph /  20.9 km/h 50 % 0.0 in /  0 mm
15:07 26.2 °F /  -3.2 °C 14.9 °F /  -9.5 °C 1013.8 in /  34327.3 hPa WSW 12.6 mph /  20.3 km/h 12.6 mph /  20.3 km/h 50 % 0.0 in /  0 mm
15:12 26.3 °F /  -3.2 °C 15.3 °F /  -9.3 °C 1013.8 in /  34327.3 hPa SW 7.4 mph /  11.9 km/h 7.4 mph /  11.9 km/h 51 % 0.0 in /  0 mm
15:17 26.4 °F /  -3.1 °C 15.4 °F /  -9.2 °C 1013.8 in /  34327.3 hPa SSW 11.1 mph /  17.9 km/h 11.1 mph /  17.9 km/h 51 % 0.0 in /  0 mm
15:22 26.4 °F /  -3.1 °C 15.4 °F /  -9.2 °C 1013.8 in /  34327.3 hPa SW 18.5 mph /  29.8 km/h 18.5 mph /  29.8 km/h 51 % 0.0 in /  0 mm
15:27 26.4 °F /  -3.1 °C 15.4 °F /  -9.2 °C 1013.8 in /  34327.3 hPa SSW 11.1 mph /  17.9 km/h 11.1 mph /  17.9 km/h 51 % 0.0 in /  0 mm
15:32 26.6 °F /  -3 °C 15.6 °F /  -9.1 °C 1013.8 in /  34327.3 hPa SW 9.3 mph /  15 km/h 9.3 mph /  15 km/h 51 % 0.0 in /  0 mm
15:37 26.5 °F /  -3.1 °C 15.6 °F /  -9.1 °C 1013.8 in /  34327.3 hPa SW 14.8 mph /  23.8 km/h 14.8 mph /  23.8 km/h 51 % 0.0 in /  0 mm
15:42 26.4 °F /  -3.1 °C 15.4 °F /  -9.2 °C 1013.8 in /  34327.3 hPa SW 11.9 mph /  19.2 km/h 11.9 mph /  19.2 km/h 51 % 0.0 in /  0 mm
15:47 26.4 °F /  -3.1 °C 15.1 °F /  -9.4 °C 1013.8 in /  34327.3 hPa SW 14.8 mph /  23.8 km/h 14.8 mph /  23.8 km/h 50 % 0.0 in /  0 mm
15:57 26.4 °F /  -3.1 °C 15.4 °F /  -9.2 °C 1013.8 in /  34327.3 hPa SW 14.8 mph /  23.8 km/h 14.8 mph /  23.8 km/h 51 % 0.0 in /  0 mm
16:02 26.3 °F /  -3.2 °C 15.1 °F /  -9.4 °C 1013.8 in /  34327.3 hPa SW 13.0 mph /  20.9 km/h 13.0 mph /  20.9 km/h 50 % 0.0 in /  0 mm
16:07 26.2 °F /  -3.2 °C 15.3 °F /  -9.3 °C 1013.8 in /  34327.3 hPa SW 16.7 mph /  26.9 km/h 16.7 mph /  26.9 km/h 51 % 0.0 in /  0 mm
16:12 26.3 °F /  -3.2 °C 15.3 °F /  -9.3 °C 1012.8 in /  34293.4 hPa SSE 12.2 mph /  19.6 km/h 12.2 mph /  19.6 km/h 51 % 0.0 in /  0 mm
16:17 26.3 °F /  -3.2 °C 15.3 °F /  -9.3 °C 1012.8 in /  34293.4 hPa SSW 9.3 mph /  15 km/h 9.3 mph /  15 km/h 51 % 0.0 in /  0 mm
16:22 26.1 °F /  -3.3 °C 15.2 °F /  -9.3 °C 1012.8 in /  34293.4 hPa SW 9.3 mph /  15 km/h 9.3 mph /  15 km/h 51 % 0.0 in /  0 mm
16:27 26.0 °F /  -3.3 °C 15.1 °F /  -9.4 °C 1012.8 in /  34293.4 hPa SW 13.0 mph /  20.9 km/h 13.0 mph /  20.9 km/h 51 % 0.0 in /  0 mm
16:32 26.0 °F /  -3.3 °C 15.1 °F /  -9.4 °C 1012.8 in /  34293.4 hPa SW 13.0 mph /  20.9 km/h 13.0 mph /  20.9 km/h 51 % 0.0 in /  0 mm
16:37 26.1 °F /  -3.3 °C 15.2 °F /  -9.3 °C 1012.8 in /  34293.4 hPa West 9.3 mph /  15 km/h 9.5 mph /  15.3 km/h 51 % 0.0 in /  0 mm
16:42 26.0 °F /  -3.3 °C 15.1 °F /  -9.4 °C 1011.7 in /  34256.2 hPa South 14.8 mph /  23.8 km/h 14.8 mph /  23.8 km/h 51 % 0.0 in /  0 mm
16:52 25.8 °F /  -3.4 °C 14.9 °F /  -9.5 °C 1011.7 in /  34256.2 hPa SSW 16.7 mph /  26.9 km/h 16.7 mph /  26.9 km/h 51 % 0.0 in /  0 mm
16:57 25.9 °F /  -3.4 °C 15.3 °F /  -9.3 °C 1012.8 in /  34293.4 hPa SSW 8.7 mph /  14 km/h 8.7 mph /  14 km/h 52 % 0.0 in /  0 mm
17:02 25.8 °F /  -3.4 °C 15.2 °F /  -9.3 °C 1012.8 in /  34293.4 hPa SW 11.1 mph /  17.9 km/h 11.1 mph /  17.9 km/h 52 % 0.0 in /  0 mm
17:07 25.6 °F /  -3.6 °C 15.3 °F /  -9.3 °C 1012.8 in /  34293.4 hPa SSE 9.3 mph /  15 km/h 9.3 mph /  15 km/h 53 % 0.0 in /  0 mm
17:12 25.5 °F /  -3.6 °C 15.2 °F /  -9.3 °C 1012.8 in /  34293.4 hPa SW 13.0 mph /  20.9 km/h 13.0 mph /  20.9 km/h 53 % 0.0 in /  0 mm
17:17 25.4 °F /  -3.7 °C 15.1 °F /  -9.4 °C 1012.8 in /  34293.4 hPa SW 13.0 mph /  20.9 km/h 13.0 mph /  20.9 km/h 53 % 0.0 in /  0 mm
17:22 25.4 °F /  -3.7 °C 15.1 °F /  -9.4 °C 1012.8 in /  34293.4 hPa WSW 9.3 mph /  15 km/h 9.3 mph /  15 km/h 53 % 0.0 in /  0 mm
17:27 25.4 °F /  -3.7 °C 15.1 °F /  -9.4 °C 1012.8 in /  34293.4 hPa WSW 9.3 mph /  15 km/h 9.3 mph /  15 km/h 53 % 0.0 in /  0 mm
17:32 25.4 °F /  -3.7 °C 15.1 °F /  -9.4 °C 1012.8 in /  34293.4 hPa South 16.7 mph /  26.9 km/h 16.7 mph /  26.9 km/h 53 % 0.0 in /  0 mm
17:37 25.2 °F /  -3.8 °C 14.9 °F /  -9.5 °C 1012.8 in /  34293.4 hPa SSW 13.0 mph /  20.9 km/h 13.0 mph /  20.9 km/h 53 % 0.0 in /  0 mm
17:52 25.3 °F /  -3.7 °C 15.3 °F /  -9.3 °C 1012.8 in /  34293.4 hPa SSW 5.6 mph /  9 km/h 5.6 mph /  9 km/h 54 % 0.0 in /  0 mm
17:57 25.3 °F /  -3.7 °C 15.3 °F /  -9.3 °C 1012.8 in /  34293.4 hPa South 5.6 mph /  9 km/h 5.6 mph /  9 km/h 54 % 0.0 in /  0 mm
18:02 25.3 °F /  -3.7 °C 15.6 °F /  -9.1 °C 1012.8 in /  34293.4 hPa WSW 9.3 mph /  15 km/h 9.3 mph /  15 km/h 55 % 0.0 in /  0 mm
18:07 25.4 °F /  -3.7 °C 15.7 °F /  -9.1 °C 1012.8 in /  34293.4 hPa SW 9.3 mph /  15 km/h 9.3 mph /  15 km/h 55 % 0.0 in /  0 mm
18:12 25.2 °F /  -3.8 °C 15.5 °F /  -9.2 °C 1012.8 in /  34293.4 hPa WSW 9.3 mph /  15 km/h 9.3 mph /  15 km/h 55 % 0.0 in /  0 mm
18:17 25.1 °F /  -3.8 °C 15.4 °F /  -9.2 °C 1012.8 in /  34293.4 hPa South 9.3 mph /  15 km/h 9.3 mph /  15 km/h 55 % 0.0 in /  0 mm
18:22 25.0 °F /  -3.9 °C 15.3 °F /  -9.3 °C 1012.8 in /  34293.4 hPa South 7.4 mph /  11.9 km/h 7.4 mph /  11.9 km/h 55 % 0.0 in /  0 mm
18:27 24.9 °F /  -3.9 °C 15.8 °F /  -9 °C 1012.8 in /  34293.4 hPa SW 7.4 mph /  11.9 km/h 7.4 mph /  11.9 km/h 57 % 0.0 in /  0 mm
18:32 24.8 °F /  -4 °C 15.7 °F /  -9.1 °C 1012.8 in /  34293.4 hPa WSW 12.2 mph /  19.6 km/h 12.2 mph /  19.6 km/h 57 % 0.0 in /  0 mm
18:37 24.6 °F /  -4.1 °C 15.8 °F /  -9 °C 1012.8 in /  34293.4 hPa SSW 7.4 mph /  11.9 km/h 7.4 mph /  11.9 km/h 58 % 0.0 in /  0 mm
18:42 24.6 °F /  -4.1 °C 15.8 °F /  -9 °C 1011.7 in /  34256.2 hPa West 9.3 mph /  15 km/h 9.3 mph /  15 km/h 58 % 0.0 in /  0 mm
18:47 24.6 °F /  -4.1 °C 15.8 °F /  -9 °C 1011.7 in /  34256.2 hPa South 9.3 mph /  15 km/h 9.3 mph /  15 km/h 58 % 0.0 in /  0 mm
18:52 24.6 °F /  -4.1 °C 16.1 °F /  -8.8 °C 1011.7 in /  34256.2 hPa WSW 14.8 mph /  23.8 km/h 14.8 mph /  23.8 km/h 59 % 0.0 in /  0 mm
18:57 24.5 °F /  -4.2 °C 15.9 °F /  -8.9 °C 1011.7 in /  34256.2 hPa WSW 6.4 mph /  10.3 km/h 6.4 mph /  10.3 km/h 59 % 0.0 in /  0 mm
19:02 24.5 °F /  -4.2 °C 16.2 °F /  -8.8 °C 1011.7 in /  34256.2 hPa SW 5.6 mph /  9 km/h 5.6 mph /  9 km/h 60 % 0.0 in /  0 mm
19:07 24.3 °F /  -4.3 °C 16.1 °F /  -8.8 °C 1011.7 in /  34256.2 hPa SSW 5.6 mph /  9 km/h 5.6 mph /  9 km/h 60 % 0.0 in /  0 mm
19:12 24.3 °F /  -4.3 °C 16.1 °F /  -8.8 °C 1011.7 in /  34256.2 hPa SW 7.4 mph /  11.9 km/h 7.4 mph /  11.9 km/h 60 % 0.0 in /  0 mm
19:17 24.2 °F /  -4.3 °C 15.9 °F /  -8.9 °C 1011.7 in /  34256.2 hPa SSW 9.3 mph /  15 km/h 9.3 mph /  15 km/h 60 % 0.0 in /  0 mm
19:22 24.0 °F /  -4.4 °C 15.8 °F /  -9 °C 1011.7 in /  34256.2 hPa WSW 7.6 mph /  12.2 km/h 7.6 mph /  12.2 km/h 60 % 0.0 in /  0 mm
19:27 24.0 °F /  -4.4 °C 16.0 °F /  -8.9 °C 1011.7 in /  34256.2 hPa SW 9.3 mph /  15 km/h 9.3 mph /  15 km/h 61 % 0.0 in /  0 mm
19:32 24.0 °F /  -4.4 °C 16.0 °F /  -8.9 °C 1011.7 in /  34256.2 hPa SW 9.3 mph /  15 km/h 9.3 mph /  15 km/h 61 % 0.0 in /  0 mm
19:37 23.9 °F /  -4.5 °C 16.2 °F /  -8.8 °C 1011.7 in /  34256.2 hPa SW 9.3 mph /  15 km/h 9.3 mph /  15 km/h 62 % 0.0 in /  0 mm
19:42 23.8 °F /  -4.6 °C 16.1 °F /  -8.8 °C 1011.7 in /  34256.2 hPa SW 11.9 mph /  19.2 km/h 11.9 mph /  19.2 km/h 62 % 0.0 in /  0 mm
19:47 23.8 °F /  -4.6 °C 16.3 °F /  -8.7 °C 1011.7 in /  34256.2 hPa WSW 3.9 mph /  6.3 km/h 3.9 mph /  6.3 km/h 63 % 0.0 in /  0 mm
19:52 23.7 °F /  -4.6 °C 16.2 °F /  -8.8 °C 1011.7 in /  34256.2 hPa WSW 7.4 mph /  11.9 km/h 7.4 mph /  11.9 km/h 63 % 0.0 in /  0 mm
19:57 23.7 °F /  -4.6 °C 16.2 °F /  -8.8 °C 1011.7 in /  34256.2 hPa SSW 5.6 mph /  9 km/h 5.6 mph /  9 km/h 63 % 0.0 in /  0 mm
20:02 23.6 °F /  -4.7 °C 16.2 °F /  -8.8 °C 1011.7 in /  34256.2 hPa SW 3.9 mph /  6.3 km/h 3.9 mph /  6.3 km/h 63 % 0.0 in /  0 mm
20:07 23.6 °F /  -4.7 °C 16.2 °F /  -8.8 °C 1011.7 in /  34256.2 hPa SW 5.6 mph /  9 km/h 5.6 mph /  9 km/h 63 % 0.0 in /  0 mm
20:12 23.5 °F /  -4.7 °C 16.1 °F /  -8.8 °C 1011.7 in /  34256.2 hPa SW 3.7 mph /  6 km/h 4.2 mph /  6.8 km/h 63 % 0.0 in /  0 mm
20:17 23.4 °F /  -4.8 °C 16.2 °F /  -8.8 °C 1011.7 in /  34256.2 hPa WSW 5.6 mph /  9 km/h 5.6 mph /  9 km/h 64 % 0.0 in /  0 mm
20:20 21.3 °F /  -5.9 °C 16.9 °F /  -8.4 °C 1011.7 in /  34256.2 hPa SW 1.6 mph /  2.6 km/h 3.2 mph /  5.1 km/h 76 % 0.0 in /  0 mm
20:22 23.3 °F /  -4.8 °C 16.1 °F /  -8.8 °C 1011.7 in /  34256.2 hPa SW 3.9 mph /  6.3 km/h 4.2 mph /  6.8 km/h 64 % 0.0 in /  0 mm
20:27 23.3 °F /  -4.8 °C 16.1 °F /  -8.8 °C 1011.7 in /  34256.2 hPa WSW 9.3 mph /  15 km/h 9.3 mph /  15 km/h 64 % 0.0 in /  0 mm
20:30 21.3 °F /  -5.9 °C 16.9 °F /  -8.4 °C 1011.7 in /  34256.2 hPa SW 1.6 mph /  2.6 km/h 3.2 mph /  5.1 km/h 76 % 0.0 in /  0 mm
20:32 23.2 °F /  -4.9 °C 16.3 °F /  -8.7 °C 1011.7 in /  34256.2 hPa SW 3.9 mph /  6.3 km/h 3.9 mph /  6.3 km/h 65 % 0.0 in /  0 mm
20:37 23.1 °F /  -4.9 °C 16.2 °F /  -8.8 °C 1011.7 in /  34256.2 hPa WSW 7.4 mph /  11.9 km/h 7.4 mph /  11.9 km/h 65 % 0.0 in /  0 mm
20:40 21.4 °F /  -5.9 °C 17.0 °F /  -8.3 °C 1011.7 in /  34256.2 hPa WSW 3.2 mph /  5.1 km/h 4.8 mph /  7.7 km/h 76 % 0.0 in /  0 mm
20:42 23.1 °F /  -4.9 °C 16.2 °F /  -8.8 °C 1011.7 in /  34256.2 hPa WSW 3.7 mph /  6 km/h 3.7 mph /  6 km/h 65 % 0.0 in /  0 mm
20:47 23.1 °F /  -4.9 °C 16.4 °F /  -8.7 °C 1011.7 in /  34256.2 hPa WSW 3.7 mph /  6 km/h 3.7 mph /  6 km/h 66 % 0.0 in /  0 mm
20:48 23.1 °F /  -4.9 °C 16.2 °F /  -8.8 °C 1011.7 in /  34256.2 hPa WNW 3.7 mph /  6 km/h 3.7 mph /  6 km/h 65 % 0.0 in /  0 mm
20:50 21.4 °F /  -5.9 °C 17.2 °F /  -8.2 °C 1011.7 in /  34256.2 hPa WSW 1.6 mph /  2.6 km/h 4.8 mph /  7.7 km/h 77 % 0.0 in /  0 mm
20:53 23.0 °F /  -5 °C 16.1 °F /  -8.8 °C 1011.7 in /  34256.2 hPa SSW 7.4 mph /  11.9 km/h 7.4 mph /  11.9 km/h 65 % 0.0 in /  0 mm
20:58 23.0 °F /  -5 °C 16.3 °F /  -8.7 °C 1011.7 in /  34256.2 hPa SW 5.6 mph /  9 km/h 5.6 mph /  9 km/h 66 % 0.0 in /  0 mm
21:00 21.4 °F /  -5.9 °C 17.2 °F /  -8.2 °C 1011.7 in /  34256.2 hPa Calm   3.2 mph /  5.1 km/h 77 % 0.0 in /  0 mm
21:03 22.9 °F /  -5.1 °C 16.2 °F /  -8.8 °C 1011.7 in /  34256.2 hPa WSW 7.4 mph /  11.9 km/h 7.4 mph /  11.9 km/h 66 % 0.0 in /  0 mm
21:08 22.9 °F /  -5.1 °C 16.2 °F /  -8.8 °C 1011.7 in /  34256.2 hPa WSW 5.6 mph /  9 km/h 5.6 mph /  9 km/h 66 % 0.0 in /  0 mm
21:10 21.3 °F /  -5.9 °C 17.1 °F /  -8.3 °C 1011.7 in /  34256.2 hPa SW 1.6 mph /  2.6 km/h 4.8 mph /  7.7 km/h 77 % 0.0 in /  0 mm
21:18 22.8 °F /  -5.1 °C 16.1 °F /  -8.8 °C 1011.7 in /  34256.2 hPa SSW 9.3 mph /  15 km/h 9.3 mph /  15 km/h 66 % 0.0 in /  0 mm
21:20 21.2 °F /  -6 °C 17.0 °F /  -8.3 °C 1011.7 in /  34256.2 hPa SW 1.6 mph /  2.6 km/h 3.2 mph /  5.1 km/h 77 % 0.0 in /  0 mm
21:23 22.7 °F /  -5.2 °C 16.3 °F /  -8.7 °C 1011.7 in /  34256.2 hPa SW 5.6 mph /  9 km/h 5.6 mph /  9 km/h 67 % 0.0 in /  0 mm
21:28 22.7 °F /  -5.2 °C 16.3 °F /  -8.7 °C 1012.8 in /  34293.4 hPa WSW 7.4 mph /  11.9 km/h 7.4 mph /  11.9 km/h 67 % 0.0 in /  0 mm
21:30 21.2 °F /  -6 °C 17.2 °F /  -8.2 °C 1012.8 in /  34293.4 hPa SW 1.6 mph /  2.6 km/h 3.2 mph /  5.1 km/h 78 % 0.0 in /  0 mm
21:33 22.6 °F /  -5.2 °C 16.4 °F /  -8.7 °C 1012.8 in /  34293.4 hPa WSW 3.7 mph /  6 km/h 3.7 mph /  6 km/h 68 % 0.0 in /  0 mm
21:38 22.6 °F /  -5.2 °C 16.4 °F /  -8.7 °C 1012.8 in /  34293.4 hPa SW 3.7 mph /  6 km/h 3.7 mph /  6 km/h 68 % 0.0 in /  0 mm
21:40 21.2 °F /  -6 °C 17.2 °F /  -8.2 °C 1012.8 in /  34293.4 hPa Calm   1.6 mph /  2.6 km/h 78 % 0.0 in /  0 mm
21:43 22.5 °F /  -5.3 °C 16.3 °F /  -8.7 °C 1012.8 in /  34293.4 hPa SSW 3.7 mph /  6 km/h 3.7 mph /  6 km/h 68 % 0.0 in /  0 mm
21:48 22.5 °F /  -5.3 °C 16.5 °F /  -8.6 °C 1012.8 in /  34293.4 hPa SW 3.7 mph /  6 km/h 3.7 mph /  6 km/h 69 % 0.0 in /  0 mm
21:50 21.2 °F /  -6 °C 17.2 °F /  -8.2 °C 1011.7 in /  34256.2 hPa WSW 1.6 mph /  2.6 km/h   78 % 0.0 in /  0 mm
21:58 22.5 °F /  -5.3 °C 16.5 °F /  -8.6 °C 1012.8 in /  34293.4 hPa WSW 2.3 mph /  3.7 km/h 2.3 mph /  3.7 km/h 69 % 0.0 in /  0 mm
22:00 21.3 °F /  -5.9 °C 17.3 °F /  -8.2 °C 1012.8 in /  34293.4 hPa WSW 1.6 mph /  2.6 km/h 1.6 mph /  2.6 km/h 78 % 0.0 in /  0 mm
22:03 22.4 °F /  -5.3 °C 16.4 °F /  -8.7 °C 1012.8 in /  34293.4 hPa Calm     69 % 0.0 in /  0 mm
22:08 22.3 °F /  -5.4 °C 16.3 °F /  -8.7 °C 1012.8 in /  34293.4 hPa SW 3.7 mph /  6 km/h 3.7 mph /  6 km/h 69 % 0.0 in /  0 mm
22:10 21.3 °F /  -5.9 °C 17.5 °F /  -8.1 °C 1012.8 in /  34293.4 hPa Calm     79 % 0.0 in /  0 mm
22:13 22.2 °F /  -5.4 °C 16.4 °F /  -8.7 °C 1012.8 in /  34293.4 hPa WSW 3.7 mph /  6 km/h 3.7 mph /  6 km/h 70 % 0.0 in /  0 mm
22:18 22.2 °F /  -5.4 °C 16.4 °F /  -8.7 °C 1012.8 in /  34293.4 hPa WSW 2.3 mph /  3.7 km/h 2.3 mph /  3.7 km/h 70 % 0.0 in /  0 mm
22:20 21.3 °F /  -5.9 °C 17.5 °F /  -8.1 °C 1011.7 in /  34256.2 hPa Calm   1.6 mph /  2.6 km/h 79 % 0.0 in /  0 mm
22:23 22.2 °F /  -5.4 °C 16.4 °F /  -8.7 °C 1012.8 in /  34293.4 hPa Calm     70 % 0.0 in /  0 mm
22:28 22.1 °F /  -5.5 °C 16.4 °F /  -8.7 °C 1012.8 in /  34293.4 hPa WSW 2.6 mph /  4.2 km/h 2.6 mph /  4.2 km/h 70 % 0.0 in /  0 mm
22:30 21.3 °F /  -5.9 °C 17.3 °F /  -8.2 °C 1011.7 in /  34256.2 hPa NW 1.6 mph /  2.6 km/h 3.2 mph /  5.1 km/h 78 % 0.0 in /  0 mm
22:33 22.1 °F /  -5.5 °C 16.6 °F /  -8.6 °C 1012.8 in /  34293.4 hPa West 2.3 mph /  3.7 km/h   71 % 0.0 in /  0 mm
22:38 22.0 °F /  -5.6 °C 16.5 °F /  -8.6 °C 1012.8 in /  34293.4 hPa SW 3.7 mph /  6 km/h 3.7 mph /  6 km/h 71 % 0.0 in /  0 mm
22:40 21.1 °F /  -6.1 °C 17.1 °F /  -8.3 °C 1011.7 in /  34256.2 hPa Calm   1.6 mph /  2.6 km/h 78 % 0.0 in /  0 mm
22:43 21.8 °F /  -5.7 °C 16.5 °F /  -8.6 °C 1012.8 in /  34293.4 hPa SW 3.9 mph /  6.3 km/h 3.9 mph /  6.3 km/h 72 % 0.0 in /  0 mm
22:48 21.7 °F /  -5.7 °C 16.4 °F /  -8.7 °C 1012.8 in /  34293.4 hPa SW 3.7 mph /  6 km/h 3.7 mph /  6 km/h 72 % 0.0 in /  0 mm
22:50 21.0 °F /  -6.1 °C 17.2 °F /  -8.2 °C 1012.8 in /  34293.4 hPa Calm   3.2 mph /  5.1 km/h 79 % 0.0 in /  0 mm
22:53 21.7 °F /  -5.7 °C 16.7 °F /  -8.5 °C 1012.8 in /  34293.4 hPa WSW 1.9 mph /  3.1 km/h   73 % 0.0 in /  0 mm
23:00 21.0 °F /  -6.1 °C 17.0 °F /  -8.3 °C 1012.8 in /  34293.4 hPa SW 1.6 mph /  2.6 km/h 3.2 mph /  5.1 km/h 78 % 0.0 in /  0 mm
23:03 21.6 °F /  -5.8 °C 16.8 °F /  -8.4 °C 1012.8 in /  34293.4 hPa Calm     74 % 0.0 in /  0 mm
23:08 21.7 °F /  -5.7 °C 16.9 °F /  -8.4 °C 1012.8 in /  34293.4 hPa North 1.9 mph /  3.1 km/h 2.3 mph /  3.7 km/h 74 % 0.0 in /  0 mm
23:10 21.0 °F /  -6.1 °C 17.0 °F /  -8.3 °C 1012.8 in /  34293.4 hPa WSW 1.6 mph /  2.6 km/h 3.2 mph /  5.1 km/h 78 % 0.0 in /  0 mm
23:13 21.8 °F /  -5.7 °C 16.9 °F /  -8.4 °C 1011.7 in /  34256.2 hPa NNW 2.3 mph /  3.7 km/h   74 % 0.0 in /  0 mm
23:18 21.8 °F /  -5.7 °C 17.2 °F /  -8.2 °C 1011.7 in /  34256.2 hPa NNE 1.9 mph /  3.1 km/h 1.9 mph /  3.1 km/h 75 % 0.0 in /  0 mm
23:20 21.0 °F /  -6.1 °C 17.0 °F /  -8.3 °C 1012.8 in /  34293.4 hPa WSW 1.6 mph /  2.6 km/h 1.6 mph /  2.6 km/h 78 % 0.0 in /  0 mm
23:23 21.8 °F /  -5.7 °C 17.2 °F /  -8.2 °C 1011.7 in /  34256.2 hPa NNE 1.9 mph /  3.1 km/h 1.9 mph /  3.1 km/h 75 % 0.0 in /  0 mm
23:28 21.7 °F /  -5.7 °C 17.1 °F /  -8.3 °C 1011.7 in /  34256.2 hPa Calm     75 % 0.0 in /  0 mm
23:30 21.0 °F /  -6.1 °C 17.0 °F /  -8.3 °C 1012.8 in /  34293.4 hPa Calm   1.6 mph /  2.6 km/h 78 % 0.0 in /  0 mm
23:33 21.7 °F /  -5.7 °C 17.1 °F /  -8.3 °C 1011.7 in /  34256.2 hPa West 1.9 mph /  3.1 km/h   75 % 0.0 in /  0 mm
23:38 21.6 °F /  -5.8 °C 17.0 °F /  -8.3 °C 1011.7 in /  34256.2 hPa SW 1.9 mph /  3.1 km/h 1.9 mph /  3.1 km/h 75 % 0.0 in /  0 mm
23:40 21.1 °F /  -6.1 °C 17.1 °F /  -8.3 °C 1012.8 in /  34293.4 hPa Calm   3.2 mph /  5.1 km/h 78 % 0.0 in /  0 mm
23:43 21.5 °F /  -5.8 °C 16.9 °F /  -8.4 °C 1012.8 in /  34293.4 hPa SW 1.9 mph /  3.1 km/h 2.3 mph /  3.7 km/h 75 % 0.0 in /  0 mm
23:48 21.4 °F /  -5.9 °C 16.8 °F /  -8.4 °C 1012.8 in /  34293.4 hPa Calm     75 % 0.0 in /  0 mm
23:50 21.0 °F /  -6.1 °C 17.2 °F /  -8.2 °C 1013.8 in /  34327.3 hPa SW 1.6 mph /  2.6 km/h 3.2 mph /  5.1 km/h 79 % 0.0 in /  0 mm
23:53 21.3 °F /  -5.9 °C 16.7 °F /  -8.5 °C 1012.8 in /  34293.4 hPa Calm     75 % 0.0 in /  0 mm
23:58 21.3 °F /  -5.9 °C 16.9 °F /  -8.4 °C 1012.8 in /  34293.4 hPa Calm     76 % 0.0 in /  0 mm
Meteo Sesrovires
Elogis d' Weather Underground - 2 mb

Guio original per  Jim McMurry - jmcmurry@mwt.net Adaptat per a la plantilla per  Wim van der Kuil - Leuven-Template.eu

Trobareu la nostra informacio del temps tambe a:

Weather Underground

AWEKAS